Terminal Aerodrome Forecast
Issued by NWS Cleveland, OH

Home | Current Version | Previous Version | Graphics & Text | Print | Product List | Glossary Off
Versions: 1 2 3 4 5 6 7 8 9 10 11 12 13 14 15 16 17 18 19

000
FTUS41 KCLE 281700
TAFYNG
TAF
KYNG 281720Z 2818/2918 VRB04KT P6SM SCT250
     FM290000 13004KT P6SM SCT120 OVC250
     FM290800 13006KT P6SM OVC120
     FM291300 15008KT P6SM OVC080
     FM291500 16011KT P6SM VCSH OVC045
      TEMPO 2916/2918 6SM -FZRA BR OVC025=

USA.gov is the U.S. government's official web portal to all federal, state and local government web resources and services.